»·PEaware :: N17MA KLAX-KSAN

N17MA :: KLAX-KSAN

FLIGHT INFORMATION

Flight Status: Arrived
Operator: Privately registered:
United States
More flights under this callsign
Pilot: Diego M. (28112)
Aircraft: CESSNA 172 SKYHAWK
(C172)
More flights by this aircraft type
Origin: KLAX Los Angeles Intl
United States
Destination: KSAN San Diego Intl-Lindbergh
United States
More flights between these airports :: More routes between these airports
Route: KLAX MZB KSAN
File this flight plan on PilotEdge
Remarks: CAT 11
Altitude:
(Current/Filed)
5,500ft
Speed:
(Current/Filed)
150kts
Departed: 04-May-20 02:53 PM
Arrived: 04-May-20 03:44 PM
Distance/Time
Traveled:
95nm/0:50
Distance/Time
To Go:
Arrived

Flight Plot

Page will automatically refresh every two minutes.

Flight plan parsing failed; only flown route is shown


Map Options




Map Legend


Flown Route
Filed Route
Departure Airport
Arrival Airport
Navaid (VOR, NDB)
Fix

Horizontal Profiles

Position Reports

Time Latitude Longitude Heading Altitude Ground
Speed
04-May-20 14:25 33.933338 -118.399846 78 129ft 0kts
04-May-20 14:26 33.933338 -118.399846 78 129ft 0kts
04-May-20 14:27 33.933338 -118.399846 78 129ft 0kts
04-May-20 14:28 33.933338 -118.399846 78 129ft 0kts
04-May-20 14:29 33.933338 -118.399846 78 129ft 0kts
04-May-20 14:30 33.933338 -118.399846 78 129ft 0kts
04-May-20 14:31 33.933338 -118.399846 78 129ft 0kts
04-May-20 14:32 33.933338 -118.399846 78 129ft 0kts
04-May-20 14:33 33.933338 -118.399846 78 129ft 0kts
04-May-20 14:34 33.933338 -118.399846 78 129ft 0kts
04-May-20 14:35 33.933338 -118.399846 78 129ft 0kts
04-May-20 14:36 33.933338 -118.399846 78 129ft 0kts
04-May-20 14:37 33.933338 -118.399846 78 129ft 0kts
04-May-20 14:38 33.933338 -118.399846 78 129ft 0kts
04-May-20 14:39 33.933338 -118.399846 78 129ft 0kts
04-May-20 14:40 33.933338 -118.399846 78 129ft 0kts
04-May-20 14:41 33.933338 -118.399846 78 129ft 0kts
04-May-20 14:42 33.933338 -118.399846 78 129ft 0kts
04-May-20 14:43 33.933338 -118.399846 78 129ft 0kts
04-May-20 14:44 33.933338 -118.399846 78 129ft 0kts
04-May-20 14:45 33.933845 -118.399914 278 129ft 0kts
04-May-20 14:46 33.934239 -118.400656 23 129ft 5kts
04-May-20 14:47 33.934786 -118.395791 82 129ft 24kts
04-May-20 14:48 33.935517 -118.388712 83 129ft 22kts
04-May-20 14:49 33.936507 -118.382769 353 129ft 0kts
04-May-20 14:50 33.936507 -118.382769 353 129ft 0kts
04-May-20 14:51 33.937121 -118.382991 326 129ft 11kts
04-May-20 14:52 33.935728 -118.401751 262 446ft 78kts
04-May-20 14:53 33.931277 -118.430213 258 966ft 91kts
04-May-20 14:54 33.912494 -118.442300 169 1466ft 102kts
04-May-20 14:55 33.885984 -118.432706 168 2086ft 94kts
04-May-20 14:56 33.860603 -118.423313 168 2547ft 111kts
04-May-20 14:57 33.827183 -118.411991 168 2555ft 131kts
04-May-20 14:58 33.793698 -118.398563 138 2908ft 124kts
04-May-20 14:59 33.770683 -118.368662 134 3496ft 121kts
04-May-20 15:00 33.747888 -118.339481 134 4086ft 119kts
04-May-20 15:01 33.725252 -118.310686 134 4680ft 118kts
04-May-20 15:02 33.702803 -118.282046 134 5276ft 117kts
04-May-20 15:03 33.679020 -118.252594 137 5537ft 134kts
04-May-20 15:04 33.651185 -118.220070 137 5538ft 141kts
04-May-20 15:05 33.622824 -118.187220 138 5534ft 141kts
04-May-20 15:06 33.593575 -118.155301 140 5531ft 141kts
04-May-20 15:07 33.564199 -118.124207 140 5529ft 140kts
04-May-20 15:08 33.535155 -118.092770 137 5528ft 140kts
04-May-20 15:09 33.510044 -118.057265 126 5527ft 140kts
04-May-20 15:10 33.487768 -118.018698 126 5526ft 140kts
04-May-20 15:11 33.465542 -117.980135 126 5526ft 140kts
04-May-20 15:12 33.443469 -117.941741 125 5526ft 140kts
04-May-20 15:13 33.421358 -117.903281 125 5527ft 140kts
04-May-20 15:14 33.398691 -117.865316 129 5528ft 140kts
04-May-20 15:15 33.374310 -117.828601 129 5530ft 140kts
04-May-20 15:16 33.349802 -117.791829 129 5533ft 141kts
04-May-20 15:17 33.325173 -117.755125 129 5537ft 141kts
04-May-20 15:18 33.300299 -117.718216 129 5542ft 143kts
04-May-20 15:19 33.275246 -117.681135 129 5547ft 143kts
04-May-20 15:20 33.250094 -117.643824 128 5553ft 143kts
04-May-20 15:21 33.225108 -117.606630 128 5559ft 143kts
04-May-20 15:22 33.200146 -117.569398 128 5566ft 143kts
04-May-20 15:23 33.175084 -117.532185 128 5573ft 143kts
04-May-20 15:24 33.150087 -117.495402 128 5580ft 142kts
04-May-20 15:25 33.125028 -117.458913 128 5586ft 141kts
04-May-20 15:26 33.100154 -117.422944 128 5591ft 140kts
04-May-20 15:27 33.074295 -117.388178 131 5531ft 141kts
04-May-20 15:28 33.047502 -117.354912 134 5470ft 131kts
04-May-20 15:29 33.025373 -117.329716 135 5306ft 115kts
04-May-20 15:30 33.004290 -117.305708 135 4644ft 98kts
04-May-20 15:31 32.980096 -117.288570 151 3950ft 102kts
04-May-20 15:32 32.954127 -117.279073 167 3515ft 86kts
04-May-20 15:33 32.925295 -117.272615 168 3540ft 109kts
04-May-20 15:34 32.895736 -117.264954 170 3541ft 108kts
04-May-20 15:35 32.866113 -117.257708 170 3535ft 108kts
04-May-20 15:36 32.836408 -117.250314 171 3529ft 108kts
04-May-20 15:37 32.806765 -117.242679 170 3486ft 112kts
04-May-20 15:38 32.778331 -117.222109 134 2574ft 120kts
04-May-20 15:39 32.762454 -117.190501 109 1553ft 102kts
04-May-20 15:40 32.753226 -117.161195 133 1162ft 86kts
04-May-20 15:41 32.730785 -117.161042 234 665ft 76kts
04-May-20 15:42 32.731257 -117.180368 287 38ft 50kts
04-May-20 15:43 32.733130 -117.184197 41 21ft 0kts
04-May-20 15:44 32.733198 -117.183413 105 21ft 8kts
04-May-20 15:45 32.732816 -117.178851 33 21ft 10kts
04-May-20 15:46 32.733137 -117.178737 323 21ft 0kts
04-May-20 15:47 32.733137 -117.178736 324 21ft 0kts
04-May-20 15:48 32.733137 -117.178736 324 21ft 0kts
04-May-20 15:50 32.733137 -117.178736 324 21ft 0kts
04-May-20 15:51 32.733137 -117.178736 324 21ft 0kts
04-May-20 15:52 32.733137 -117.178736 324 21ft 0kts
04-May-20 15:53 32.733137 -117.178736 324 21ft 0kts

Navigation Log

Ident Type
Flight plan parsing failed, navigation log unavailable